sensor_id;sensor_type;location;lat;lon;timestamp;P1;durP1;ratioP1;P2;durP2;ratioP2
21601;SDS011;10963;50.934;4.668;2022-11-20T00:01:22;36.60;;;21.80;;
21601;SDS011;10963;50.934;4.668;2022-11-20T00:03:54;43.57;;;23.33;;
21601;SDS011;10963;50.934;4.668;2022-11-20T00:06:22;40.60;;;21.17;;
21601;SDS011;10963;50.934;4.668;2022-11-20T00:08:49;43.60;;;22.77;;
21601;SDS011;10963;50.934;4.668;2022-11-20T00:11:21;44.33;;;22.23;;
21601;SDS011;10963;50.934;4.668;2022-11-20T00:13:52;39.07;;;20.87;;
21601;SDS011;10963;50.934;4.668;2022-11-20T00:16:21;40.60;;;22.17;;
21601;SDS011;10963;50.934;4.668;2022-11-20T00:18:50;38.93;;;21.77;;
21601;SDS011;10963;50.934;4.668;2022-11-20T00:21:23;42.00;;;22.37;;
21601;SDS011;10963;50.934;4.668;2022-11-20T00:23:54;45.23;;;21.20;;
21601;SDS011;10963;50.934;4.668;2022-11-20T00:26:21;43.67;;;21.60;;
21601;SDS011;10963;50.934;4.668;2022-11-20T00:28:49;40.97;;;22.00;;
21601;SDS011;10963;50.934;4.668;2022-11-20T00:31:17;41.13;;;21.23;;
21601;SDS011;10963;50.934;4.668;2022-11-20T00:33:44;42.77;;;22.67;;
21601;SDS011;10963;50.934;4.668;2022-11-20T00:36:13;39.50;;;20.63;;
21601;SDS011;10963;50.934;4.668;2022-11-20T00:38:43;44.10;;;22.57;;
21601;SDS011;10963;50.934;4.668;2022-11-20T00:41:15;41.87;;;21.57;;
21601;SDS011;10963;50.934;4.668;2022-11-20T00:43:44;44.20;;;22.20;;
21601;SDS011;10963;50.934;4.668;2022-11-20T00:46:14;43.63;;;22.63;;
21601;SDS011;10963;50.934;4.668;2022-11-20T00:48:41;40.17;;;22.47;;
21601;SDS011;10963;50.934;4.668;2022-11-20T00:51:08;39.30;;;22.67;;
21601;SDS011;10963;50.934;4.668;2022-11-20T00:53:39;47.30;;;23.33;;
21601;SDS011;10963;50.934;4.668;2022-11-20T00:56:07;46.07;;;23.17;;
21601;SDS011;10963;50.934;4.668;2022-11-20T00:58:41;43.27;;;22.97;;
21601;SDS011;10963;50.934;4.668;2022-11-20T01:01:12;42.27;;;21.80;;
21601;SDS011;10963;50.934;4.668;2022-11-20T01:03:49;43.57;;;23.53;;
21601;SDS011;10963;50.934;4.668;2022-11-20T01:06:19;40.73;;;21.33;;
21601;SDS011;10963;50.934;4.668;2022-11-20T01:08:51;41.63;;;22.23;;
21601;SDS011;10963;50.934;4.668;2022-11-20T01:11:27;45.70;;;22.67;;
21601;SDS011;10963;50.934;4.668;2022-11-20T01:13:58;43.53;;;22.53;;
21601;SDS011;10963;50.934;4.668;2022-11-20T01:16:30;42.73;;;21.77;;
21601;SDS011;10963;50.934;4.668;2022-11-20T01:18:58;42.97;;;22.30;;
21601;SDS011;10963;50.934;4.668;2022-11-20T01:21:33;46.93;;;23.13;;
21601;SDS011;10963;50.934;4.668;2022-11-20T01:24:01;38.23;;;23.13;;
21601;SDS011;10963;50.934;4.668;2022-11-20T01:26:29;45.37;;;22.77;;
21601;SDS011;10963;50.934;4.668;2022-11-20T01:28:59;44.87;;;23.40;;
21601;SDS011;10963;50.934;4.668;2022-11-20T01:31:28;39.43;;;21.60;;
21601;SDS011;10963;50.934;4.668;2022-11-20T01:33:56;43.97;;;22.83;;
21601;SDS011;10963;50.934;4.668;2022-11-20T01:36:24;41.30;;;22.60;;
21601;SDS011;10963;50.934;4.668;2022-11-20T01:38:53;43.50;;;23.40;;
21601;SDS011;10963;50.934;4.668;2022-11-20T01:41:20;41.90;;;22.27;;
21601;SDS011;10963;50.934;4.668;2022-11-20T01:44:04;43.53;;;21.60;;
21601;SDS011;10963;50.934;4.668;2022-11-20T01:46:37;41.13;;;22.77;;
21601;SDS011;10963;50.934;4.668;2022-11-20T01:51:49;40.40;;;21.80;;
21601;SDS011;10963;50.934;4.668;2022-11-20T01:54:25;42.97;;;22.93;;
21601;SDS011;10963;50.934;4.668;2022-11-20T01:57:01;45.40;;;23.77;;
21601;SDS011;10963;50.934;4.668;2022-11-20T01:59:31;41.20;;;21.70;;
21601;SDS011;10963;50.934;4.668;2022-11-20T02:02:02;43.40;;;22.40;;
21601;SDS011;10963;50.934;4.668;2022-11-20T02:04:28;43.70;;;21.90;;
21601;SDS011;10963;50.934;4.668;2022-11-20T02:06:57;42.87;;;22.03;;
21601;SDS011;10963;50.934;4.668;2022-11-20T02:09:25;45.17;;;22.93;;
21601;SDS011;10963;50.934;4.668;2022-11-20T02:11:51;48.07;;;24.13;;
21601;SDS011;10963;50.934;4.668;2022-11-20T02:14:19;44.17;;;22.23;;
21601;SDS011;10963;50.934;4.668;2022-11-20T02:16:47;45.97;;;22.67;;
21601;SDS011;10963;50.934;4.668;2022-11-20T02:19:24;45.03;;;22.53;;
21601;SDS011;10963;50.934;4.668;2022-11-20T02:24:27;49.03;;;23.53;;
21601;SDS011;10963;50.934;4.668;2022-11-20T02:27:06;52.63;;;24.77;;
21601;SDS011;10963;50.934;4.668;2022-11-20T02:29:40;43.40;;;22.50;;
21601;SDS011;10963;50.934;4.668;2022-11-20T02:32:29;55.40;;;24.23;;
21601;SDS011;10963;50.934;4.668;2022-11-20T02:34:56;47.73;;;23.73;;
21601;SDS011;10963;50.934;4.668;2022-11-20T02:37:22;48.83;;;23.80;;
21601;SDS011;10963;50.934;4.668;2022-11-20T02:39:54;50.23;;;23.90;;
21601;SDS011;10963;50.934;4.668;2022-11-20T02:42:19;47.30;;;23.43;;
21601;SDS011;10963;50.934;4.668;2022-11-20T02:44:45;44.50;;;23.20;;
21601;SDS011;10963;50.934;4.668;2022-11-20T02:47:13;49.07;;;24.40;;
21601;SDS011;10963;50.934;4.668;2022-11-20T02:49:42;51.00;;;23.10;;
21601;SDS011;10963;50.934;4.668;2022-11-20T02:52:10;50.27;;;24.60;;
21601;SDS011;10963;50.934;4.668;2022-11-20T02:54:38;51.03;;;23.80;;
21601;SDS011;10963;50.934;4.668;2022-11-20T02:57:03;53.77;;;24.80;;
21601;SDS011;10963;50.934;4.668;2022-11-20T02:59:29;43.27;;;23.43;;
21601;SDS011;10963;50.934;4.668;2022-11-20T03:01:55;51.13;;;24.60;;
21601;SDS011;10963;50.934;4.668;2022-11-20T03:04:21;47.77;;;24.87;;
21601;SDS011;10963;50.934;4.668;2022-11-20T03:06:46;47.23;;;23.93;;
21601;SDS011;10963;50.934;4.668;2022-11-20T03:09:17;48.13;;;23.47;;
21601;SDS011;10963;50.934;4.668;2022-11-20T03:11:42;51.53;;;25.80;;
21601;SDS011;10963;50.934;4.668;2022-11-20T03:14:08;55.30;;;25.97;;
21601;SDS011;10963;50.934;4.668;2022-11-20T03:16:36;60.57;;;25.90;;
21601;SDS011;10963;50.934;4.668;2022-11-20T03:19:04;59.73;;;26.43;;
21601;SDS011;10963;50.934;4.668;2022-11-20T03:21:33;56.67;;;26.97;;
21601;SDS011;10963;50.934;4.668;2022-11-20T03:23:59;57.47;;;27.17;;
21601;SDS011;10963;50.934;4.668;2022-11-20T03:26:25;60.67;;;27.40;;
21601;SDS011;10963;50.934;4.668;2022-11-20T03:28:53;59.00;;;26.13;;
21601;SDS011;10963;50.934;4.668;2022-11-20T03:31:23;62.07;;;28.43;;
21601;SDS011;10963;50.934;4.668;2022-11-20T03:33:51;63.83;;;29.30;;
21601;SDS011;10963;50.934;4.668;2022-11-20T03:36:22;57.03;;;27.63;;
21601;SDS011;10963;50.934;4.668;2022-11-20T03:38:52;57.10;;;27.47;;
21601;SDS011;10963;50.934;4.668;2022-11-20T03:41:22;60.47;;;28.20;;
21601;SDS011;10963;50.934;4.668;2022-11-20T03:43:50;66.57;;;28.80;;
21601;SDS011;10963;50.934;4.668;2022-11-20T03:46:17;65.13;;;28.77;;
21601;SDS011;10963;50.934;4.668;2022-11-20T03:48:43;71.37;;;30.47;;
21601;SDS011;10963;50.934;4.668;2022-11-20T03:51:12;75.37;;;31.37;;
21601;SDS011;10963;50.934;4.668;2022-11-20T03:53:43;77.57;;;30.50;;
21601;SDS011;10963;50.934;4.668;2022-11-20T03:56:12;69.07;;;28.93;;
21601;SDS011;10963;50.934;4.668;2022-11-20T03:58:40;70.57;;;30.63;;
21601;SDS011;10963;50.934;4.668;2022-11-20T04:01:16;70.73;;;29.43;;
21601;SDS011;10963;50.934;4.668;2022-11-20T04:03:45;79.10;;;29.57;;
21601;SDS011;10963;50.934;4.668;2022-11-20T04:06:16;69.37;;;30.33;;
21601;SDS011;10963;50.934;4.668;2022-11-20T04:08:45;71.60;;;31.60;;
21601;SDS011;10963;50.934;4.668;2022-11-20T04:11:15;72.57;;;31.40;;
21601;SDS011;10963;50.934;4.668;2022-11-20T04:13:45;71.03;;;30.20;;
21601;SDS011;10963;50.934;4.668;2022-11-20T04:16:17;67.60;;;30.23;;
21601;SDS011;10963;50.934;4.668;2022-11-20T04:18:46;73.30;;;30.03;;
21601;SDS011;10963;50.934;4.668;2022-11-20T04:21:12;64.93;;;29.23;;
21601;SDS011;10963;50.934;4.668;2022-11-20T04:23:40;67.37;;;29.60;;
21601;SDS011;10963;50.934;4.668;2022-11-20T04:26:09;83.60;;;32.03;;
21601;SDS011;10963;50.934;4.668;2022-11-20T04:28:36;75.33;;;30.33;;
21601;SDS011;10963;50.934;4.668;2022-11-20T04:31:02;74.07;;;30.20;;
21601;SDS011;10963;50.934;4.668;2022-11-20T04:33:39;80.33;;;31.17;;
21601;SDS011;10963;50.934;4.668;2022-11-20T04:36:15;67.63;;;29.53;;
21601;SDS011;10963;50.934;4.668;2022-11-20T04:38:41;69.37;;;30.63;;
21601;SDS011;10963;50.934;4.668;2022-11-20T04:41:08;67.50;;;30.27;;
21601;SDS011;10963;50.934;4.668;2022-11-20T04:43:39;72.23;;;31.43;;
21601;SDS011;10963;50.934;4.668;2022-11-20T04:46:07;71.37;;;27.93;;
21601;SDS011;10963;50.934;4.668;2022-11-20T04:48:34;77.00;;;28.63;;
21601;SDS011;10963;50.934;4.668;2022-11-20T04:51:03;72.13;;;29.90;;
21601;SDS011;10963;50.934;4.668;2022-11-20T04:53:29;66.60;;;28.23;;
21601;SDS011;10963;50.934;4.668;2022-11-20T04:56:02;75.40;;;31.67;;
21601;SDS011;10963;50.934;4.668;2022-11-20T04:58:32;71.67;;;28.13;;
21601;SDS011;10963;50.934;4.668;2022-11-20T05:03:28;68.73;;;29.23;;
21601;SDS011;10963;50.934;4.668;2022-11-20T05:05:54;63.70;;;28.53;;
21601;SDS011;10963;50.934;4.668;2022-11-20T05:08:20;72.53;;;29.43;;
21601;SDS011;10963;50.934;4.668;2022-11-20T05:10:45;64.80;;;26.37;;
21601;SDS011;10963;50.934;4.668;2022-11-20T05:13:13;65.40;;;27.13;;
21601;SDS011;10963;50.934;4.668;2022-11-20T05:15:42;67.53;;;27.37;;
21601;SDS011;10963;50.934;4.668;2022-11-20T05:18:12;77.83;;;28.17;;
21601;SDS011;10963;50.934;4.668;2022-11-20T05:20:39;75.00;;;29.30;;
21601;SDS011;10963;50.934;4.668;2022-11-20T05:23:04;65.87;;;27.13;;
21601;SDS011;10963;50.934;4.668;2022-11-20T05:25:33;78.83;;;30.13;;
21601;SDS011;10963;50.934;4.668;2022-11-20T05:27:59;72.90;;;26.43;;
21601;SDS011;10963;50.934;4.668;2022-11-20T05:30:25;64.70;;;27.67;;
21601;SDS011;10963;50.934;4.668;2022-11-20T05:32:50;78.37;;;29.00;;
21601;SDS011;10963;50.934;4.668;2022-11-20T05:35:16;64.67;;;27.77;;
21601;SDS011;10963;50.934;4.668;2022-11-20T05:37:44;76.10;;;30.07;;
21601;SDS011;10963;50.934;4.668;2022-11-20T05:40:13;75.37;;;28.90;;
21601;SDS011;10963;50.934;4.668;2022-11-20T05:42:39;78.63;;;31.47;;
21601;SDS011;10963;50.934;4.668;2022-11-20T05:45:08;74.57;;;30.73;;
21601;SDS011;10963;50.934;4.668;2022-11-20T05:47:34;68.97;;;27.77;;
21601;SDS011;10963;50.934;4.668;2022-11-20T05:50:00;68.03;;;28.27;;
21601;SDS011;10963;50.934;4.668;2022-11-20T05:52:31;82.77;;;32.67;;
21601;SDS011;10963;50.934;4.668;2022-11-20T05:54:56;80.30;;;31.20;;
21601;SDS011;10963;50.934;4.668;2022-11-20T05:57:27;78.37;;;29.83;;
21601;SDS011;10963;50.934;4.668;2022-11-20T05:59:53;83.33;;;31.00;;
21601;SDS011;10963;50.934;4.668;2022-11-20T06:02:18;79.77;;;31.97;;
21601;SDS011;10963;50.934;4.668;2022-11-20T06:04:44;81.70;;;32.20;;
21601;SDS011;10963;50.934;4.668;2022-11-20T06:07:12;78.13;;;30.70;;
21601;SDS011;10963;50.934;4.668;2022-11-20T06:09:38;75.53;;;30.57;;
21601;SDS011;10963;50.934;4.668;2022-11-20T06:12:05;82.33;;;31.90;;
21601;SDS011;10963;50.934;4.668;2022-11-20T06:14:31;85.40;;;31.70;;
21601;SDS011;10963;50.934;4.668;2022-11-20T06:16:58;82.37;;;32.73;;
21601;SDS011;10963;50.934;4.668;2022-11-20T06:19:26;87.30;;;32.60;;
21601;SDS011;10963;50.934;4.668;2022-11-20T06:21:52;86.83;;;30.43;;
21601;SDS011;10963;50.934;4.668;2022-11-20T06:24:20;76.00;;;30.60;;
21601;SDS011;10963;50.934;4.668;2022-11-20T06:26:50;78.77;;;30.53;;
21601;SDS011;10963;50.934;4.668;2022-11-20T06:29:16;72.83;;;31.70;;
21601;SDS011;10963;50.934;4.668;2022-11-20T06:31:42;75.23;;;29.73;;
21601;SDS011;10963;50.934;4.668;2022-11-20T06:34:08;76.87;;;30.20;;
21601;SDS011;10963;50.934;4.668;2022-11-20T06:36:36;73.13;;;29.93;;
21601;SDS011;10963;50.934;4.668;2022-11-20T06:39:02;79.03;;;30.07;;
21601;SDS011;10963;50.934;4.668;2022-11-20T06:41:28;65.03;;;30.63;;
21601;SDS011;10963;50.934;4.668;2022-11-20T06:43:54;69.63;;;29.00;;
21601;SDS011;10963;50.934;4.668;2022-11-20T06:46:20;73.07;;;29.17;;
21601;SDS011;10963;50.934;4.668;2022-11-20T06:48:47;65.60;;;27.93;;
21601;SDS011;10963;50.934;4.668;2022-11-20T06:51:13;66.73;;;27.73;;
21601;SDS011;10963;50.934;4.668;2022-11-20T06:53:41;64.37;;;28.03;;
21601;SDS011;10963;50.934;4.668;2022-11-20T06:56:10;68.87;;;27.03;;
21601;SDS011;10963;50.934;4.668;2022-11-20T06:58:36;63.97;;;26.33;;
21601;SDS011;10963;50.934;4.668;2022-11-20T07:01:06;62.53;;;26.73;;
21601;SDS011;10963;50.934;4.668;2022-11-20T07:03:38;65.80;;;26.43;;
21601;SDS011;10963;50.934;4.668;2022-11-20T07:06:07;76.30;;;28.10;;
21601;SDS011;10963;50.934;4.668;2022-11-20T07:08:33;78.53;;;35.17;;
21601;SDS011;10963;50.934;4.668;2022-11-20T07:11:04;72.13;;;30.10;;
21601;SDS011;10963;50.934;4.668;2022-11-20T07:13:31;62.17;;;26.80;;
21601;SDS011;10963;50.934;4.668;2022-11-20T07:16:01;65.67;;;26.17;;
21601;SDS011;10963;50.934;4.668;2022-11-20T07:18:28;75.43;;;27.00;;
21601;SDS011;10963;50.934;4.668;2022-11-20T07:21:04;77.13;;;26.70;;
21601;SDS011;10963;50.934;4.668;2022-11-20T07:23:33;72.03;;;25.60;;
21601;SDS011;10963;50.934;4.668;2022-11-20T07:26:09;75.87;;;24.47;;
21601;SDS011;10963;50.934;4.668;2022-11-20T07:28:39;73.73;;;26.83;;
21601;SDS011;10963;50.934;4.668;2022-11-20T07:31:09;84.17;;;25.80;;
21601;SDS011;10963;50.934;4.668;2022-11-20T07:33:35;84.23;;;25.80;;
21601;SDS011;10963;50.934;4.668;2022-11-20T07:36:01;78.03;;;26.50;;
21601;SDS011;10963;50.934;4.668;2022-11-20T07:38:30;84.40;;;26.03;;
21601;SDS011;10963;50.934;4.668;2022-11-20T07:40:56;78.17;;;26.60;;
21601;SDS011;10963;50.934;4.668;2022-11-20T07:43:22;72.37;;;25.67;;
21601;SDS011;10963;50.934;4.668;2022-11-20T07:45:57;89.30;;;26.77;;
21601;SDS011;10963;50.934;4.668;2022-11-20T07:48:26;87.67;;;27.50;;
21601;SDS011;10963;50.934;4.668;2022-11-20T07:50:57;102.87;;;31.60;;
21601;SDS011;10963;50.934;4.668;2022-11-20T07:53:24;120.20;;;43.30;;
21601;SDS011;10963;50.934;4.668;2022-11-20T07:55:50;95.97;;;32.13;;
21601;SDS011;10963;50.934;4.668;2022-11-20T07:58:20;97.07;;;28.20;;
21601;SDS011;10963;50.934;4.668;2022-11-20T08:00:48;100.17;;;31.37;;
21601;SDS011;10963;50.934;4.668;2022-11-20T08:03:16;104.20;;;29.53;;
21601;SDS011;10963;50.934;4.668;2022-11-20T08:05:47;110.93;;;33.37;;
21601;SDS011;10963;50.934;4.668;2022-11-20T08:08:13;134.70;;;58.20;;
21601;SDS011;10963;50.934;4.668;2022-11-20T08:10:39;112.40;;;41.23;;
21601;SDS011;10963;50.934;4.668;2022-11-20T08:13:08;95.33;;;30.03;;
21601;SDS011;10963;50.934;4.668;2022-11-20T08:15:52;95.17;;;29.77;;
21601;SDS011;10963;50.934;4.668;2022-11-20T08:18:18;90.93;;;33.03;;
21601;SDS011;10963;50.934;4.668;2022-11-20T08:20:44;99.30;;;33.63;;
21601;SDS011;10963;50.934;4.668;2022-11-20T08:23:10;87.80;;;28.20;;
21601;SDS011;10963;50.934;4.668;2022-11-20T08:25:37;89.60;;;28.30;;
21601;SDS011;10963;50.934;4.668;2022-11-20T08:28:08;79.33;;;27.33;;
21601;SDS011;10963;50.934;4.668;2022-11-20T08:30:35;80.73;;;27.27;;
21601;SDS011;10963;50.934;4.668;2022-11-20T08:33:03;86.27;;;26.23;;
21601;SDS011;10963;50.934;4.668;2022-11-20T08:35:36;78.70;;;28.03;;
21601;SDS011;10963;50.934;4.668;2022-11-20T08:38:08;98.00;;;29.63;;
21601;SDS011;10963;50.934;4.668;2022-11-20T08:40:36;91.33;;;27.50;;
21601;SDS011;10963;50.934;4.668;2022-11-20T08:43:02;86.10;;;27.40;;
21601;SDS011;10963;50.934;4.668;2022-11-20T08:45:28;81.40;;;28.50;;
21601;SDS011;10963;50.934;4.668;2022-11-20T08:47:59;80.83;;;28.63;;
21601;SDS011;10963;50.934;4.668;2022-11-20T08:50:25;85.80;;;27.73;;
21601;SDS011;10963;50.934;4.668;2022-11-20T08:53:01;91.10;;;28.90;;
21601;SDS011;10963;50.934;4.668;2022-11-20T08:55:33;77.07;;;30.33;;
21601;SDS011;10963;50.934;4.668;2022-11-20T08:58:05;86.83;;;30.10;;
21601;SDS011;10963;50.934;4.668;2022-11-20T09:00:31;87.90;;;32.97;;
21601;SDS011;10963;50.934;4.668;2022-11-20T09:03:01;81.93;;;28.23;;
21601;SDS011;10963;50.934;4.668;2022-11-20T09:05:27;92.93;;;27.83;;
21601;SDS011;10963;50.934;4.668;2022-11-20T09:07:57;85.10;;;28.17;;
21601;SDS011;10963;50.934;4.668;2022-11-20T09:10:26;91.23;;;36.83;;
21601;SDS011;10963;50.934;4.668;2022-11-20T09:12:57;76.00;;;29.80;;
21601;SDS011;10963;50.934;4.668;2022-11-20T09:15:23;85.10;;;27.40;;
21601;SDS011;10963;50.934;4.668;2022-11-20T09:17:54;85.70;;;28.30;;
21601;SDS011;10963;50.934;4.668;2022-11-20T09:20:24;84.57;;;28.93;;
21601;SDS011;10963;50.934;4.668;2022-11-20T09:22:50;80.23;;;27.13;;
21601;SDS011;10963;50.934;4.668;2022-11-20T09:25:17;85.80;;;30.27;;
21601;SDS011;10963;50.934;4.668;2022-11-20T09:27:42;91.93;;;28.17;;
21601;SDS011;10963;50.934;4.668;2022-11-20T09:30:10;79.53;;;25.60;;
21601;SDS011;10963;50.934;4.668;2022-11-20T09:32:40;85.53;;;27.97;;
21601;SDS011;10963;50.934;4.668;2022-11-20T09:35:07;85.33;;;29.07;;
21601;SDS011;10963;50.934;4.668;2022-11-20T09:37:33;82.43;;;29.97;;
21601;SDS011;10963;50.934;4.668;2022-11-20T09:39:59;77.80;;;25.93;;
21601;SDS011;10963;50.934;4.668;2022-11-20T09:42:32;75.63;;;24.33;;
21601;SDS011;10963;50.934;4.668;2022-11-20T09:53:40;75.87;;;26.37;;
21601;SDS011;10963;50.934;4.668;2022-11-20T09:56:33;70.87;;;22.33;;
21601;SDS011;10963;50.934;4.668;2022-11-20T09:59:03;68.17;;;23.77;;
21601;SDS011;10963;50.934;4.668;2022-11-20T10:01:32;79.53;;;25.13;;
21601;SDS011;10963;50.934;4.668;2022-11-20T10:04:12;70.50;;;26.33;;
21601;SDS011;10963;50.934;4.668;2022-11-20T10:06:48;65.43;;;26.77;;
21601;SDS011;10963;50.934;4.668;2022-11-20T10:09:35;68.03;;;23.33;;
21601;SDS011;10963;50.934;4.668;2022-11-20T10:33:53;54.03;;;21.70;;
21601;SDS011;10963;50.934;4.668;2022-11-20T10:36:25;55.37;;;21.37;;
21601;SDS011;10963;50.934;4.668;2022-11-20T10:39:01;59.17;;;21.63;;
21601;SDS011;10963;50.934;4.668;2022-11-20T10:41:33;49.73;;;19.70;;
21601;SDS011;10963;50.934;4.668;2022-11-20T10:47:18;47.33;;;19.37;;
21601;SDS011;10963;50.934;4.668;2022-11-20T10:49:51;54.43;;;22.20;;
21601;SDS011;10963;50.934;4.668;2022-11-20T11:01:21;57.13;;;27.10;;
21601;SDS011;10963;50.934;4.668;2022-11-20T11:03:48;48.53;;;20.37;;
21601;SDS011;10963;50.934;4.668;2022-11-20T11:06:37;58.60;;;27.63;;
21601;SDS011;10963;50.934;4.668;2022-11-20T11:09:11;69.03;;;36.87;;
21601;SDS011;10963;50.934;4.668;2022-11-20T11:11:42;43.30;;;21.23;;
21601;SDS011;10963;50.934;4.668;2022-11-20T11:14:11;41.13;;;18.50;;
21601;SDS011;10963;50.934;4.668;2022-11-20T11:16:52;39.40;;;22.53;;
21601;SDS011;10963;50.934;4.668;2022-11-20T11:19:22;35.50;;;16.70;;
21601;SDS011;10963;50.934;4.668;2022-11-20T11:21:50;35.33;;;13.80;;
21601;SDS011;10963;50.934;4.668;2022-11-20T11:24:22;33.27;;;14.17;;
21601;SDS011;10963;50.934;4.668;2022-11-20T11:26:52;26.83;;;13.97;;
21601;SDS011;10963;50.934;4.668;2022-11-20T11:29:29;25.37;;;12.87;;
21601;SDS011;10963;50.934;4.668;2022-11-20T11:32:11;20.70;;;10.47;;
21601;SDS011;10963;50.934;4.668;2022-11-20T11:34:38;16.37;;;9.07;;
21601;SDS011;10963;50.934;4.668;2022-11-20T11:37:10;20.70;;;9.00;;
21601;SDS011;10963;50.934;4.668;2022-11-20T11:39:44;14.20;;;7.50;;
21601;SDS011;10963;50.934;4.668;2022-11-20T11:42:13;13.63;;;8.10;;
21601;SDS011;10963;50.934;4.668;2022-11-20T11:44:44;13.07;;;6.30;;
21601;SDS011;10963;50.934;4.668;2022-11-20T11:47:32;9.33;;;5.50;;
21601;SDS011;10963;50.934;4.668;2022-11-20T11:50:14;9.93;;;5.77;;
21601;SDS011;10963;50.934;4.668;2022-11-20T11:55:45;10.13;;;5.00;;
21601;SDS011;10963;50.934;4.668;2022-11-20T12:00:54;8.80;;;4.67;;
21601;SDS011;10963;50.934;4.668;2022-11-20T12:03:29;12.93;;;5.53;;
21601;SDS011;10963;50.934;4.668;2022-11-20T12:06:13;10.23;;;3.90;;
21601;SDS011;10963;50.934;4.668;2022-11-20T12:08:43;10.47;;;4.20;;
21601;SDS011;10963;50.934;4.668;2022-11-20T12:16:51;5.83;;;3.47;;
21601;SDS011;10963;50.934;4.668;2022-11-20T12:19:18;6.90;;;3.50;;
21601;SDS011;10963;50.934;4.668;2022-11-20T12:30:14;7.30;;;3.27;;
21601;SDS011;10963;50.934;4.668;2022-11-20T12:35:57;6.87;;;2.70;;
21601;SDS011;10963;50.934;4.668;2022-11-20T12:41:27;7.10;;;2.90;;
21601;SDS011;10963;50.934;4.668;2022-11-20T12:47:47;10.83;;;4.87;;
21601;SDS011;10963;50.934;4.668;2022-11-20T12:50:40;7.43;;;3.10;;
21601;SDS011;10963;50.934;4.668;2022-11-20T13:01:45;6.27;;;3.17;;
21601;SDS011;10963;50.934;4.668;2022-11-20T13:06:58;10.67;;;4.03;;
21601;SDS011;10963;50.934;4.668;2022-11-20T13:09:26;7.23;;;3.97;;
21601;SDS011;10963;50.934;4.668;2022-11-20T13:12:12;8.43;;;3.30;;
21601;SDS011;10963;50.934;4.668;2022-11-20T13:17:36;7.10;;;3.47;;
21601;SDS011;10963;50.934;4.668;2022-11-20T13:20:23;6.00;;;3.27;;
21601;SDS011;10963;50.934;4.668;2022-11-20T13:22:52;6.80;;;3.60;;
21601;SDS011;10963;50.934;4.668;2022-11-20T13:25:26;7.43;;;3.80;;
21601;SDS011;10963;50.934;4.668;2022-11-20T13:28:47;8.40;;;3.83;;
21601;SDS011;10963;50.934;4.668;2022-11-20T13:30:51;7.80;;;3.37;;
21601;SDS011;10963;50.934;4.668;2022-11-20T13:38:27;15.93;;;4.33;;
21601;SDS011;10963;50.934;4.668;2022-11-20T13:41:07;9.27;;;4.53;;
21601;SDS011;10963;50.934;4.668;2022-11-20T13:43:52;8.70;;;4.07;;
21601;SDS011;10963;50.934;4.668;2022-11-20T13:46:19;12.33;;;4.57;;
21601;SDS011;10963;50.934;4.668;2022-11-20T13:48:49;8.00;;;4.87;;
21601;SDS011;10963;50.934;4.668;2022-11-20T13:54:22;8.97;;;4.03;;
21601;SDS011;10963;50.934;4.668;2022-11-20T14:02:40;6.77;;;4.23;;
21601;SDS011;10963;50.934;4.668;2022-11-20T14:05:11;6.50;;;4.50;;
21601;SDS011;10963;50.934;4.668;2022-11-20T14:07:47;4.37;;;3.50;;
21601;SDS011;10963;50.934;4.668;2022-11-20T14:10:24;8.83;;;4.40;;
21601;SDS011;10963;50.934;4.668;2022-11-20T14:12:54;9.37;;;4.27;;
21601;SDS011;10963;50.934;4.668;2022-11-20T14:15:30;6.73;;;4.30;;
21601;SDS011;10963;50.934;4.668;2022-11-20T14:18:10;5.17;;;4.23;;
21601;SDS011;10963;50.934;4.668;2022-11-20T14:20:44;9.30;;;3.77;;
21601;SDS011;10963;50.934;4.668;2022-11-20T14:23:10;6.80;;;4.10;;
21601;SDS011;10963;50.934;4.668;2022-11-20T14:25:36;7.07;;;4.00;;
21601;SDS011;10963;50.934;4.668;2022-11-20T14:28:10;7.30;;;3.83;;
21601;SDS011;10963;50.934;4.668;2022-11-20T14:30:44;5.03;;;3.40;;
21601;SDS011;10963;50.934;4.668;2022-11-20T14:33:12;3.77;;;2.93;;
21601;SDS011;10963;50.934;4.668;2022-11-20T14:35:47;3.93;;;3.23;;
21601;SDS011;10963;50.934;4.668;2022-11-20T14:38:17;6.47;;;3.50;;
21601;SDS011;10963;50.934;4.668;2022-11-20T14:40:47;4.33;;;3.30;;
21601;SDS011;10963;50.934;4.668;2022-11-20T14:43:33;7.23;;;3.43;;
21601;SDS011;10963;50.934;4.668;2022-11-20T14:46:03;4.27;;;3.40;;
21601;SDS011;10963;50.934;4.668;2022-11-20T14:48:33;4.37;;;3.33;;
21601;SDS011;10963;50.934;4.668;2022-11-20T14:51:15;4.13;;;3.20;;
21601;SDS011;10963;50.934;4.668;2022-11-20T14:54:08;4.10;;;2.80;;
21601;SDS011;10963;50.934;4.668;2022-11-20T14:56:34;2.97;;;2.60;;
21601;SDS011;10963;50.934;4.668;2022-11-20T14:59:02;4.73;;;2.97;;
21601;SDS011;10963;50.934;4.668;2022-11-20T15:01:33;3.23;;;2.80;;
21601;SDS011;10963;50.934;4.668;2022-11-20T15:04:09;3.43;;;2.80;;
21601;SDS011;10963;50.934;4.668;2022-11-20T15:06:48;5.97;;;2.80;;
21601;SDS011;10963;50.934;4.668;2022-11-20T15:09:16;4.47;;;3.03;;
21601;SDS011;10963;50.934;4.668;2022-11-20T15:14:49;9.83;;;4.77;;
21601;SDS011;10963;50.934;4.668;2022-11-20T15:17:15;8.03;;;4.50;;
21601;SDS011;10963;50.934;4.668;2022-11-20T15:19:40;4.33;;;3.40;;
21601;SDS011;10963;50.934;4.668;2022-11-20T15:22:09;5.33;;;4.77;;
21601;SDS011;10963;50.934;4.668;2022-11-20T15:24:41;5.40;;;4.90;;
21601;SDS011;10963;50.934;4.668;2022-11-20T15:27:08;5.90;;;3.70;;
21601;SDS011;10963;50.934;4.668;2022-11-20T15:29:34;4.33;;;3.90;;
21601;SDS011;10963;50.934;4.668;2022-11-20T15:32:02;6.33;;;4.00;;
21601;SDS011;10963;50.934;4.668;2022-11-20T15:34:28;7.60;;;4.43;;
21601;SDS011;10963;50.934;4.668;2022-11-20T15:36:56;7.83;;;4.67;;
21601;SDS011;10963;50.934;4.668;2022-11-20T15:39:24;8.90;;;4.93;;
21601;SDS011;10963;50.934;4.668;2022-11-20T15:41:50;10.67;;;5.33;;
21601;SDS011;10963;50.934;4.668;2022-11-20T15:44:16;10.17;;;6.37;;
21601;SDS011;10963;50.934;4.668;2022-11-20T15:46:44;8.87;;;5.60;;
21601;SDS011;10963;50.934;4.668;2022-11-20T15:49:13;8.30;;;5.70;;
21601;SDS011;10963;50.934;4.668;2022-11-20T15:51:44;8.40;;;6.07;;
21601;SDS011;10963;50.934;4.668;2022-11-20T15:54:13;10.77;;;5.87;;
21601;SDS011;10963;50.934;4.668;2022-11-20T15:56:45;11.47;;;5.43;;
21601;SDS011;10963;50.934;4.668;2022-11-20T15:59:14;10.50;;;5.60;;
21601;SDS011;10963;50.934;4.668;2022-11-20T16:01:40;11.77;;;6.97;;
21601;SDS011;10963;50.934;4.668;2022-11-20T16:04:10;8.73;;;6.23;;
21601;SDS011;10963;50.934;4.668;2022-11-20T16:06:38;12.20;;;6.57;;
21601;SDS011;10963;50.934;4.668;2022-11-20T16:09:04;15.23;;;6.10;;
21601;SDS011;10963;50.934;4.668;2022-11-20T16:11:30;13.50;;;5.33;;
21601;SDS011;10963;50.934;4.668;2022-11-20T16:13:55;17.70;;;5.83;;
21601;SDS011;10963;50.934;4.668;2022-11-20T16:16:39;10.47;;;5.27;;
21601;SDS011;10963;50.934;4.668;2022-11-20T16:19:09;15.50;;;5.90;;
21601;SDS011;10963;50.934;4.668;2022-11-20T16:21:41;12.83;;;5.23;;
21601;SDS011;10963;50.934;4.668;2022-11-20T16:24:13;11.90;;;5.63;;
21601;SDS011;10963;50.934;4.668;2022-11-20T16:26:43;12.97;;;5.17;;
21601;SDS011;10963;50.934;4.668;2022-11-20T16:29:11;8.63;;;4.73;;
21601;SDS011;10963;50.934;4.668;2022-11-20T16:31:39;9.37;;;5.50;;
21601;SDS011;10963;50.934;4.668;2022-11-20T16:34:07;12.20;;;5.20;;
21601;SDS011;10963;50.934;4.668;2022-11-20T16:36:33;10.13;;;5.30;;